Time;durP1;ratioP1;P1;durP2;ratioP2;P2;SDS_P1;SDS_P2;PMS_P1;PMS_P2;Temp;Humidity;BMP_temperature;BMP_pressure;BME280_temperature;BME280_humidity;BME280_pressure;Samples;Min_cycle;Max_cycle;Signal;HPM_P1;HPM_P2
2023/10/02 00:02:08;;;;;;;20.77;9.95;;;;;;;17.94;97.05;102017.47;10319118;28;20083;-65
2023/10/02 00:07:29;;;;;;;18.35;9.52;;;;;;;17.94;97.25;102022.72;10470162;28;20428;-65
2023/10/02 00:12:58;;;;;;;22.25;9.43;;;;;;;17.93;97.61;102026.22;10466986;28;20047;-65
2023/10/02 00:18:20;;;;;;;22.02;10.45;;;;;;;17.92;97.51;102024.53;10477136;28;20056;-65
2023/10/02 00:23:59;;;;;;;20.30;9.98;;;;;;;17.92;97.65;102020.16;10467590;28;20072;-65
2023/10/02 00:29:23;;;;;;;20.67;9.43;;;;;;;17.91;97.31;102018.44;10463309;28;20067;-65
2023/10/02 00:34:47;;;;;;;22.60;10.68;;;;;;;17.92;97.08;102019.31;10468422;28;20083;-65
2023/10/02 00:40:22;;;;;;;21.17;10.13;;;;;;;17.91;97.33;102025.44;10475448;28;20101;-65
2023/10/02 00:45:43;;;;;;;19.65;9.88;;;;;;;17.89;97.43;102015.03;10479927;28;20113;-65
2023/10/02 00:51:07;;;;;;;22.60;10.45;;;;;;;17.90;97.72;102018.50;10473583;28;20455;-65
2023/10/02 00:56:29;;;;;;;20.67;9.77;;;;;;;17.91;98.03;102009.72;10470461;28;20148;-65
2023/10/02 01:01:52;;;;;;;20.65;10.50;;;;;;;17.86;97.89;102001.22;10472179;28;20224;-65
2023/10/02 01:07:16;;;;;;;20.98;10.32;;;;;;;17.86;97.80;102003.81;10489795;28;20403;-64
2023/10/02 01:12:43;;;;;;;17.40;10.02;;;;;;;17.82;98.04;102002.25;10472272;28;20052;-65
2023/10/02 01:18:27;;;;;;;23.23;10.52;;;;;;;17.85;98.03;102004.75;10471655;28;20059;-65
2023/10/02 01:24:10;;;;;;;19.25;9.82;;;;;;;17.82;98.37;101997.00;10468796;28;20044;-65
2023/10/02 01:29:31;;;;;;;18.77;9.82;;;;;;;17.80;98.64;101997.06;10462585;28;20047;-65
2023/10/02 01:34:53;;;;;;;20.88;9.80;;;;;;;17.86;98.76;102003.81;10491138;28;20044;-64
2023/10/02 01:40:28;;;;;;;21.70;10.38;;;;;;;17.86;98.91;101994.22;10476179;28;20047;-64
2023/10/02 01:45:56;;;;;;;21.20;9.82;;;;;;;17.87;99.18;101985.44;10467564;28;20135;-64
2023/10/02 01:51:20;;;;;;;21.40;10.68;;;;;;;17.84;98.88;101976.84;10468861;28;20041;-65
2023/10/02 01:56:46;;;;;;;23.30;10.30;;;;;;;17.88;98.90;101973.19;10474775;28;20132;-65
2023/10/02 02:02:12;;;;;;;20.40;10.43;;;;;;;17.89;99.02;101961.81;10471188;28;20047;-65
2023/10/02 02:07:35;;;;;;;21.70;10.98;;;;;;;17.89;98.70;101962.66;10469815;28;20560;-65
2023/10/02 02:12:57;;;;;;;24.67;11.50;;;;;;;17.89;98.63;101967.88;10471033;28;20040;-65
2023/10/02 02:18:21;;;;;;;20.75;10.68;;;;;;;17.89;98.49;101967.88;10457270;28;20052;-65
2023/10/02 02:23:45;;;;;;;22.58;10.95;;;;;;;17.92;98.94;101967.78;10468705;28;20048;-65
2023/10/02 02:35:03;;;;;;;24.05;11.23;;;;;;;17.92;98.86;101966.91;10464518;28;20050;-65
2023/10/02 02:40:29;;;;;;;22.85;10.52;;;;;;;17.93;99.18;101945.03;10467072;28;20071;-65
2023/10/02 02:45:51;;;;;;;24.58;11.63;;;;;;;17.93;99.25;101945.03;10471978;28;20055;-65
2023/10/02 02:51:18;;;;;;;18.38;10.40;;;;;;;17.93;99.05;101947.66;10476981;28;20107;-65
2023/10/02 02:56:39;;;;;;;21.35;10.40;;;;;;;17.94;98.87;101939.75;10480494;28;20067;-65
2023/10/02 03:02:10;;;;;;;18.45;10.70;;;;;;;17.91;99.48;101923.28;10469441;28;20401;-66
2023/10/02 03:07:36;;;;;;;21.83;11.32;;;;;;;17.96;98.89;101937.06;10464212;28;20497;-65
2023/10/02 03:13:00;;;;;;;22.67;11.60;;;;;;;17.89;98.25;101930.38;10473712;28;20052;-66
2023/10/02 03:18:30;;;;;;;23.45;12.02;;;;;;;17.94;98.20;101936.28;10471707;28;20052;-65
2023/10/02 03:23:54;;;;;;;25.48;12.60;;;;;;;17.96;98.13;101939.69;10469327;28;20060;-65
2023/10/02 03:29:21;;;;;;;25.48;12.98;;;;;;;17.96;97.90;101948.38;10460487;28;20102;-66
2023/10/02 03:34:48;;;;;;;23.27;12.52;;;;;;;17.99;97.54;101939.53;10464678;28;20052;-65
2023/10/02 03:40:20;;;;;;;22.85;11.60;;;;;;;18.01;97.68;101941.19;10463816;28;20044;-65
2023/10/02 03:45:44;;;;;;;26.13;11.80;;;;;;;17.99;97.87;101932.53;10469133;28;20060;-65
2023/10/02 03:51:09;;;;;;;25.48;12.13;;;;;;;18.01;97.95;101922.00;10468577;28;20052;-65
2023/10/02 03:56:36;;;;;;;25.63;13.27;;;;;;;18.02;97.19;101923.69;10465628;28;20044;-65
2023/10/02 04:07:47;;;;;;;26.05;13.13;;;;;;;18.04;95.72;101924.47;10479911;28;20048;-65
2023/10/02 04:13:09;;;;;;;26.80;12.82;;;;;;;18.05;95.82;101928.81;10471742;28;20503;-65
2023/10/02 04:19:15;;;;;;;25.98;12.85;;;;;;;18.04;95.83;101908.75;10472991;28;20131;-65
2023/10/02 04:24:23;;;;;;;26.63;13.50;;;;;;;18.04;95.53;101912.22;10471380;28;20117;-65
2023/10/02 04:30:19;;;;;;;26.98;13.52;;;;;;;18.05;95.28;101907.84;10477557;28;20126;-65
2023/10/02 04:35:45;;;;;;;27.55;13.15;;;;;;;18.04;95.38;101903.50;10469201;28;20055;-65
2023/10/02 04:41:25;;;;;;;30.63;13.38;;;;;;;18.00;95.47;101896.72;10478387;28;20047;-65
2023/10/02 04:46:52;;;;;;;24.48;12.80;;;;;;;17.97;96.01;101902.06;10476686;28;20045;-64
2023/10/02 04:52:14;;;;;;;25.23;13.05;;;;;;;17.89;95.85;101893.72;10495739;28;20082;-64
2023/10/02 04:57:35;;;;;;;29.75;13.60;;;;;;;17.78;96.02;101890.72;10465803;28;20043;-64
2023/10/02 05:03:09;;;;;;;27.17;13.35;;;;;;;17.71;96.76;101900.56;10472032;28;20045;-64
2023/10/02 05:08:37;;;;;;;25.25;12.35;;;;;;;17.67;96.65;101906.84;10470469;28;20050;-64
2023/10/02 05:13:59;;;;;;;28.20;13.60;;;;;;;17.66;96.44;101912.16;10483526;28;20049;-65
2023/10/02 05:19:54;;;;;;;25.38;13.45;;;;;;;17.62;96.98;101913.19;10489117;28;20074;-64
2023/10/02 05:25:07;;;;;;;28.65;14.15;;;;;;;17.59;97.08;101916.81;10478837;28;20068;-65
2023/10/02 05:30:28;;;;;;;;;;;;;;;17.54;97.60;101912.69;10455122;28;20033;-65
2023/10/02 05:35:50;;;;;;;27.00;13.20;;;;;;;17.56;97.25;101916.09;10470676;28;19927;-65
2023/10/02 05:41:12;;;;;;;29.88;14.00;;;;;;;17.54;96.85;101918.78;10475902;28;20427;-65
2023/10/02 05:46:54;;;;;;;25.23;13.40;;;;;;;17.55;96.75;101940.53;10488284;28;20416;-65
2023/10/02 05:52:20;;;;;;;29.27;13.77;;;;;;;17.53;96.64;101932.75;10473289;28;20094;-65
2023/10/02 05:57:45;;;;;;;27.38;14.10;;;;;;;17.53;96.52;101924.03;10472180;28;20063;-65
2023/10/02 06:03:11;;;;;;;26.15;13.43;;;;;;;17.55;96.89;101925.69;10473663;28;20041;-65
2023/10/02 06:08:34;;;;;;;27.20;13.60;;;;;;;17.59;96.68;101931.66;10472565;28;20048;-65
2023/10/02 06:13:58;;;;;;;24.77;13.95;;;;;;;17.59;96.45;101936.88;10473510;28;20186;-65
2023/10/02 06:19:20;;;;;;;25.10;12.75;;;;;;;17.59;96.45;101929.03;10474983;28;20053;-65
2023/10/02 06:24:42;;;;;;;26.48;13.35;;;;;;;17.59;96.17;101932.53;10472291;28;20132;-65
2023/10/02 06:30:05;;;;;;;28.55;13.50;;;;;;;17.60;96.32;101933.38;10468674;28;20044;-65
2023/10/02 06:35:26;;;;;;;25.45;12.40;;;;;;;17.63;96.31;101938.47;10486007;28;20071;-65
2023/10/02 06:40:57;;;;;;;28.83;13.40;;;;;;;17.63;95.86;101939.34;10471216;28;20036;-65
2023/10/02 06:46:19;;;;;;;26.35;13.68;;;;;;;17.70;95.77;101938.16;10472027;28;20048;-65
2023/10/02 06:51:41;;;;;;;24.83;12.32;;;;;;;17.74;95.59;101937.13;10456318;28;20040;-65
2023/10/02 06:57:11;;;;;;;29.25;14.23;;;;;;;17.80;95.19;101936.00;10485624;28;20067;-65
2023/10/02 07:02:33;;;;;;;30.20;12.65;;;;;;;17.85;95.03;101936.66;10452915;28;20041;-65
2023/10/02 07:08:01;;;;;;;29.05;12.90;;;;;;;17.88;94.80;101939.16;10471416;28;20044;-66
2023/10/02 07:13:23;;;;;;;26.60;12.52;;;;;;;17.95;94.50;101935.34;10482865;28;20578;-65
2023/10/02 07:18:53;;;;;;;26.65;12.57;;;;;;;18.00;94.54;101928.16;10466146;28;20056;-65
2023/10/02 07:24:28;;;;;;;27.63;12.43;;;;;;;18.13;94.27;101941.59;10457115;28;20033;-65
2023/10/02 07:29:52;;;;;;;29.38;13.38;;;;;;;18.23;93.62;101948.97;10465722;28;20040;-65
2023/10/02 07:35:23;;;;;;;28.52;12.95;;;;;;;18.33;93.56;101947.63;10471568;28;20131;-65
2023/10/02 07:40:48;;;;;;;27.50;13.70;;;;;;;18.44;92.61;101944.59;10482803;28;20498;-65
2023/10/02 07:46:16;;;;;;;25.85;12.23;;;;;;;18.54;92.63;101938.84;10470194;28;20044;-65
2023/10/02 07:51:37;;;;;;;25.33;12.98;;;;;;;18.67;91.41;101940.00;10472242;28;20079;-65
2023/10/02 07:56:59;;;;;;;27.10;12.70;;;;;;;18.72;92.22;101945.88;10465132;28;20041;-65
2023/10/02 08:02:21;;;;;;;24.10;12.15;;;;;;;18.77;91.49;101949.13;10463133;28;20033;-65
2023/10/02 08:07:43;;;;;;;25.92;12.75;;;;;;;18.80;91.35;101943.78;10469472;28;20084;-65
2023/10/02 08:13:08;;;;;;;24.83;11.63;;;;;;;18.79;92.32;101942.06;10469392;28;20127;-65
2023/10/02 08:18:29;;;;;;;24.60;12.45;;;;;;;18.87;92.06;101942.56;10451445;28;20052;-65
2023/10/02 08:23:52;;;;;;;29.38;12.85;;;;;;;18.90;92.37;101939.78;10461303;28;20610;-65
2023/10/02 08:29:15;;;;;;;29.33;12.82;;;;;;;18.97;91.40;101941.19;10468687;28;20493;-65
2023/10/02 08:34:37;;;;;;;25.85;12.68;;;;;;;19.05;90.58;101941.69;10485419;28;20235;-65
2023/10/02 08:39:59;;;;;;;28.02;11.82;;;;;;;19.05;91.18;101949.56;10485684;28;20052;-65
2023/10/02 08:45:24;;;;;;;29.60;12.55;;;;;;;19.12;91.12;101937.00;10455235;28;20416;-65
2023/10/02 08:50:49;;;;;;;24.40;12.32;;;;;;;19.23;90.22;101939.13;10470487;28;20088;-65
2023/10/02 08:56:23;;;;;;;27.88;12.15;;;;;;;19.35;89.89;101951.69;10467706;28;20053;-65
2023/10/02 09:01:47;;;;;;;27.67;12.48;;;;;;;19.44;89.90;101943.34;10469264;28;20466;-65
2023/10/02 09:07:44;;;;;;;27.00;11.98;;;;;;;19.51;88.92;101923.75;10483622;28;20556;-65
2023/10/02 09:13:19;;;;;;;29.30;12.82;;;;;;;19.63;88.51;101937.13;10470308;28;20097;-65
2023/10/02 09:24:23;;;;;;;28.73;12.82;;;;;;;19.76;88.74;101925.06;10486398;28;20036;-66
2023/10/02 09:29:45;;;;;;;27.52;12.68;;;;;;;19.79;88.61;101916.19;10475819;28;20497;-65
2023/10/02 09:35:11;;;;;;;33.88;13.38;;;;;;;19.85;88.36;101913.28;10472887;28;20048;-65
2023/10/02 09:41:14;;;;;;;24.30;12.55;;;;;;;19.95;88.09;101906.59;10469937;28;20070;-65
2023/10/02 09:46:39;;;;;;;25.30;12.20;;;;;;;19.97;88.89;101910.00;10479224;28;20153;-65
2023/10/02 09:52:10;;;;;;;28.02;12.75;;;;;;;20.18;87.13;101915.97;10486388;28;20052;-65
2023/10/02 09:57:38;;;;;;;28.15;12.63;;;;;;;20.29;87.68;101911.81;10471188;28;20492;-65
2023/10/02 10:03:24;;;;;;;29.70;12.10;;;;;;;20.43;87.04;101914.59;10467970;28;20124;-65
2023/10/02 10:14:36;;;;;;;23.80;12.30;;;;;;;20.60;87.46;101911.88;10485248;28;20056;-65
2023/10/02 10:20:18;;;;;;;26.58;12.18;;;;;;;20.74;85.71;101890.09;10470806;28;20135;-65
2023/10/02 10:25:45;;;;;;;25.48;12.60;;;;;;;20.77;85.56;101889.91;10470884;28;20154;-65
2023/10/02 10:31:08;;;;;;;28.17;12.95;;;;;;;20.87;84.23;101880.56;10469768;28;20060;-65
2023/10/02 10:36:38;;;;;;;26.00;12.37;;;;;;;20.93;84.68;101878.44;10472054;28;20036;-65
2023/10/02 10:42:00;;;;;;;27.17;13.15;;;;;;;20.99;85.02;101875.50;10472960;28;20452;-65
2023/10/02 10:47:38;;;;;;;24.48;12.43;;;;;;;21.09;83.89;101874.97;10469878;28;20041;-65
2023/10/02 10:53:02;;;;;;;27.98;12.95;;;;;;;21.19;83.75;101878.81;10477334;28;20048;-66
2023/10/02 10:58:33;;;;;;;27.02;12.60;;;;;;;21.20;84.34;101876.06;10487465;28;20190;-66
2023/10/02 11:04:02;;;;;;;30.08;11.98;;;;;;;21.23;85.42;101875.03;10474986;28;20126;-66
2023/10/02 11:09:24;;;;;;;23.67;12.23;;;;;;;21.29;85.53;101885.22;10461260;28;20059;-65
2023/10/02 11:14:45;;;;;;;31.15;13.43;;;;;;;21.34;83.85;101880.53;10463558;28;20048;-65
2023/10/02 11:20:07;;;;;;;27.55;12.27;;;;;;;21.31;83.99;101876.31;10465600;28;20041;-65
2023/10/02 11:25:29;;;;;;;25.35;11.43;;;;;;;21.31;84.69;101888.63;10471645;28;20098;-65
2023/10/02 11:31:00;;;;;;;27.30;13.07;;;;;;;21.25;85.28;101873.16;10462784;28;20726;-65
2023/10/02 11:36:22;;;;;;;24.15;12.05;;;;;;;21.26;85.13;101867.81;10465200;28;20377;-65
2023/10/02 11:41:43;;;;;;;24.83;11.32;;;;;;;21.31;85.28;101862.28;10467659;28;20051;-65
2023/10/02 11:47:09;;;;;;;25.80;11.30;;;;;;;21.36;85.99;101855.81;10460213;28;20532;-65
2023/10/02 11:52:32;;;;;;;25.05;11.70;;;;;;;21.45;85.84;101855.28;10480871;28;20130;-65
2023/10/02 11:57:53;;;;;;;24.08;11.73;;;;;;;21.67;85.64;101860.97;10468127;28;20644;-65
2023/10/02 12:03:18;;;;;;;22.60;10.70;;;;;;;21.85;83.83;101874.84;10465883;28;20087;-65
2023/10/02 12:08:40;;;;;;;23.13;10.80;;;;;;;21.86;84.03;101877.44;10467802;28;20055;-64
2023/10/02 12:14:05;;;;;;;20.05;9.45;;;;;;;22.02;83.28;101850.09;10459056;28;20462;-64
2023/10/02 12:19:28;;;;;;;18.52;9.05;;;;;;;22.08;82.17;101860.28;10460255;28;20045;-64
2023/10/02 12:24:50;;;;;;;21.08;10.32;;;;;;;22.14;81.93;101860.75;10485275;28;20049;-64
2023/10/02 12:30:12;;;;;;;21.92;9.52;;;;;;;22.30;81.74;101863.31;10468417;28;20044;-64
2023/10/02 12:35:36;;;;;;;22.40;9.95;;;;;;;22.43;81.64;101862.44;10473657;28;20047;-64
2023/10/02 12:40:58;;;;;;;24.43;9.23;;;;;;;22.52;82.48;101861.88;10473534;28;20044;-65
2023/10/02 12:46:20;;;;;;;18.95;8.93;;;;;;;22.61;80.81;101850.75;10475851;28;20049;-65
2023/10/02 12:51:41;;;;;;;24.10;9.35;;;;;;;22.60;79.88;101843.78;10492314;28;20063;-65
2023/10/02 12:57:05;;;;;;;18.75;8.38;;;;;;;22.52;81.06;101839.91;10477250;28;20572;-65
2023/10/02 13:02:26;;;;;;;18.00;9.10;;;;;;;22.57;79.61;101841.34;10489143;28;20036;-65
2023/10/02 13:07:50;;;;;;;18.17;8.65;;;;;;;22.62;80.17;101835.75;10468813;28;20106;-65
2023/10/02 13:13:12;;;;;;;20.20;8.57;;;;;;;22.59;80.68;101833.31;10470794;28;20074;-65
2023/10/02 13:18:34;;;;;;;22.27;9.88;;;;;;;22.50;80.07;101828.59;10488644;28;20496;-65
2023/10/02 13:23:55;;;;;;;19.33;9.57;;;;;;;22.46;80.46;101825.31;10470642;28;20151;-65
2023/10/02 13:29:18;;;;;;;21.90;9.73;;;;;;;22.41;81.64;101824.75;10469536;28;20039;-65
2023/10/02 13:34:41;;;;;;;20.02;9.07;;;;;;;22.33;81.90;101807.69;10488858;28;20066;-65
2023/10/02 13:40:05;;;;;;;23.20;10.15;;;;;;;22.35;80.47;101803.19;10468868;28;20053;-65
2023/10/02 13:45:27;;;;;;;20.55;9.32;;;;;;;22.36;80.60;101802.25;10472144;28;20061;-65
2023/10/02 13:50:49;;;;;;;17.90;9.38;;;;;;;22.35;81.35;101790.00;10469090;28;20040;-65
2023/10/02 13:56:32;;;;;;;21.33;9.95;;;;;;;22.31;82.33;101778.78;10471555;28;20060;-65
2023/10/02 14:01:55;;;;;;;18.63;8.43;;;;;;;22.34;82.90;101783.03;10470208;28;20386;-65
2023/10/02 14:07:18;;;;;;;18.52;9.27;;;;;;;22.35;82.78;101772.38;10470159;28;20060;-65
2023/10/02 14:12:43;;;;;;;19.80;8.77;;;;;;;22.40;81.89;101779.97;10474362;28;20052;-64
2023/10/02 14:18:04;;;;;;;;;;;;;;;22.35;84.06;101772.38;10468376;28;20540;-65
2023/10/02 14:23:29;;;;;;;15.38;7.85;;;;;;;22.33;84.82;101766.34;10474114;28;19920;-65
2023/10/02 14:28:52;;;;;;;25.17;10.27;;;;;;;22.32;83.71;101762.03;10471732;28;20059;-65
2023/10/02 14:34:14;;;;;;;17.85;8.45;;;;;;;22.30;83.82;101761.28;10468345;28;20116;-65
2023/10/02 14:39:36;;;;;;;21.17;9.45;;;;;;;22.33;83.34;101760.22;10486010;28;20036;-65
2023/10/02 14:44:58;;;;;;;22.40;10.07;;;;;;;22.35;82.87;101759.19;10482559;28;20037;-66
2023/10/02 14:50:20;;;;;;;19.48;9.90;;;;;;;22.36;82.86;101755.59;10456536;28;20135;-65
2023/10/02 14:55:48;;;;;;;17.55;8.70;;;;;;;22.35;83.64;101738.09;10467724;28;20044;-65
2023/10/02 15:01:12;;;;;;;20.25;8.20;;;;;;;22.30;84.66;101741.97;10478290;28;20033;-64
2023/10/02 15:06:35;;;;;;;19.08;9.82;;;;;;;22.25;85.37;101739.59;10474350;28;20053;-65
2023/10/02 15:11:57;;;;;;;18.80;8.68;;;;;;;22.26;84.68;101737.81;10466808;28;20423;-65
2023/10/02 15:17:19;;;;;;;20.30;9.25;;;;;;;22.22;83.87;101734.53;10461568;28;20055;-65
2023/10/02 15:22:42;;;;;;;21.58;9.95;;;;;;;22.23;84.09;101738.03;10463338;28;20552;-64
2023/10/02 15:28:06;;;;;;;18.33;9.23;;;;;;;22.24;83.67;101734.44;10480956;28;20047;-64
2023/10/02 15:33:37;;;;;;;26.77;9.48;;;;;;;22.21;83.71;101729.38;10484652;28;20041;-64
2023/10/02 15:39:02;;;;;;;18.95;9.07;;;;;;;22.20;84.17;101723.25;10465955;28;21628;-64
2023/10/02 15:44:26;;;;;;;16.55;8.60;;;;;;;22.17;84.67;101728.72;10463684;28;20393;-64
2023/10/02 15:49:48;;;;;;;16.13;7.65;;;;;;;22.13;84.80;101724.56;10467978;28;20577;-64
2023/10/02 15:55:12;;;;;;;16.77;8.10;;;;;;;22.11;85.67;101713.28;10464916;28;20075;-65
2023/10/02 16:00:34;;;;;;;15.60;8.17;;;;;;;22.06;86.27;101714.50;10456596;28;20048;-64
2023/10/02 16:05:59;;;;;;;19.48;9.10;;;;;;;22.01;86.11;101721.88;10466735;28;20052;-64
2023/10/02 16:11:22;;;;;;;15.80;8.30;;;;;;;22.00;86.50;101713.13;10484869;28;20605;-65
2023/10/02 16:16:44;;;;;;;17.30;7.80;;;;;;;21.96;86.34;101704.56;10478256;28;20064;-64
2023/10/02 16:22:05;;;;;;;18.52;8.60;;;;;;;21.96;86.96;101706.34;10500117;28;20127;-64
2023/10/02 16:27:27;;;;;;;15.48;7.22;;;;;;;21.90;87.22;101699.66;10466468;28;20049;-64
2023/10/02 16:32:49;;;;;;;15.60;7.55;;;;;;;21.83;87.41;101698.34;10479696;28;20143;-65
2023/10/02 16:38:12;;;;;;;18.08;7.78;;;;;;;21.77;87.39;101693.44;10468768;28;20076;-65
2023/10/02 16:43:33;;;;;;;16.27;7.57;;;;;;;21.67;88.19;101684.41;10485911;28;20131;-65
2023/10/02 16:48:55;;;;;;;17.23;7.45;;;;;;;21.59;89.06;101689.31;10484020;28;20508;-65
2023/10/02 16:54:16;;;;;;;16.10;7.68;;;;;;;21.52;89.24;101688.00;10489697;28;20052;-64
2023/10/02 16:59:38;;;;;;;17.25;7.57;;;;;;;21.43;89.46;101674.53;10475668;28;20443;-64
2023/10/02 17:05:00;;;;;;;19.63;8.35;;;;;;;21.34;89.78;101683.00;10476054;28;20071;-65
2023/10/02 17:10:23;;;;;;;19.45;8.32;;;;;;;21.26;89.67;101669.47;10470370;28;20155;-65
2023/10/02 17:15:47;;;;;;;18.85;8.20;;;;;;;21.22;89.51;101674.09;10472766;28;20076;-65
2023/10/02 17:21:09;;;;;;;16.83;8.02;;;;;;;21.12;89.94;101672.06;10478416;28;20048;-65
2023/10/02 17:26:34;;;;;;;21.67;8.82;;;;;;;21.08;90.47;101670.59;10470886;28;20397;-65
2023/10/02 17:31:55;;;;;;;23.27;9.25;;;;;;;21.02;90.40;101662.09;10471071;28;20063;-65
2023/10/02 17:37:18;;;;;;;20.48;8.63;;;;;;;20.96;90.78;101659.81;10472318;28;20607;-65
2023/10/02 17:42:40;;;;;;;20.95;9.48;;;;;;;20.92;90.69;101658.31;10472843;28;20041;-65
2023/10/02 17:48:01;;;;;;;15.30;8.13;;;;;;;20.83;91.04;101671.16;10469726;28;20424;-65
2023/10/02 17:53:23;;;;;;;16.83;8.48;;;;;;;20.78;90.91;101670.59;10471225;28;20768;-65
2023/10/02 17:58:45;;;;;;;17.00;8.85;;;;;;;20.69;90.91;101669.31;10476481;28;20044;-65
2023/10/02 18:04:11;;;;;;;18.77;8.32;;;;;;;20.67;91.26;101660.69;10485759;28;20370;-65
2023/10/02 18:09:35;;;;;;;15.85;8.40;;;;;;;20.61;91.55;101661.06;10485704;28;20064;-65
2023/10/02 18:14:57;;;;;;;16.67;8.20;;;;;;;20.59;91.91;101657.66;10459473;28;20520;-65
2023/10/02 18:20:19;;;;;;;17.55;8.15;;;;;;;20.56;92.11;101662.25;10471385;28;20388;-65
2023/10/02 18:25:53;;;;;;;16.95;8.93;;;;;;;20.48;92.06;101654.81;10487925;28;20400;-65
2023/10/02 18:31:15;;;;;;;19.10;9.02;;;;;;;20.45;92.55;101655.00;10483690;28;20044;-66
2023/10/02 18:36:37;;;;;;;16.08;8.55;;;;;;;20.41;92.64;101658.72;10476135;28;20060;-65
2023/10/02 18:42:00;;;;;;;17.70;9.02;;;;;;;20.41;92.70;101655.25;10468475;28;20040;-65
2023/10/02 18:47:22;;;;;;;15.98;8.52;;;;;;;20.42;92.92;101642.00;10469976;28;20133;-65
2023/10/02 18:52:44;;;;;;;17.42;8.50;;;;;;;20.41;92.98;101637.69;10469045;28;20041;-65
2023/10/02 18:58:06;;;;;;;25.02;8.63;;;;;;;20.35;93.25;101651.19;10465254;28;20044;-65
2023/10/02 19:03:28;;;;;;;18.02;8.90;;;;;;;20.34;93.56;101667.03;10464634;28;20040;-65
2023/10/02 19:08:50;;;;;;;18.65;9.65;;;;;;;20.34;94.00;101665.28;10489230;28;20122;-65
2023/10/02 19:14:12;;;;;;;19.88;10.55;;;;;;;20.31;93.75;101665.44;10470867;28;20036;-65
2023/10/02 19:19:34;;;;;;;24.52;12.48;;;;;;;20.28;94.04;101670.88;10472108;28;20060;-65
2023/10/02 19:24:56;;;;;;;20.92;11.65;;;;;;;20.30;94.13;101676.91;10470061;28;20047;-65
2023/10/02 19:30:17;;;;;;;27.73;15.85;;;;;;;20.33;94.28;101681.97;10470736;28;20051;-65
2023/10/02 19:35:39;;;;;;;31.45;16.70;;;;;;;20.33;94.22;101673.22;10487438;28;20040;-65
2023/10/02 19:41:01;;;;;;;27.15;15.35;;;;;;;20.37;94.22;101678.25;10467418;28;20608;-65
2023/10/02 19:46:22;;;;;;;25.08;14.05;;;;;;;20.37;94.21;101687.91;10468632;28;20413;-65
2023/10/02 19:51:44;;;;;;;22.50;13.25;;;;;;;20.37;94.42;101672.97;10466253;28;20048;-65
2023/10/02 19:57:06;;;;;;;21.48;11.52;;;;;;;20.35;94.35;101669.59;10465996;28;20050;-65
2023/10/02 20:02:27;;;;;;;21.13;12.98;;;;;;;20.25;94.29;101643.91;10468957;28;20399;-65
2023/10/02 20:07:49;;;;;;;27.00;13.70;;;;;;;20.23;94.23;101644.00;10466697;28;20062;-65
2023/10/02 20:13:11;;;;;;;24.50;13.43;;;;;;;20.10;94.47;101637.72;10475933;28;20055;-64
2023/10/02 20:18:33;;;;;;;23.50;13.70;;;;;;;20.02;94.80;101624.16;10471264;28;20040;-65
2023/10/02 20:23:55;;;;;;;23.35;13.75;;;;;;;19.94;95.16;101615.88;10478523;28;20048;-65
2023/10/02 20:29:20;;;;;;;26.60;14.50;;;;;;;19.87;95.61;101594.31;10481765;28;20072;-65
2023/10/02 20:34:43;;;;;;;26.70;14.00;;;;;;;19.82;95.59;101590.25;10465106;28;20098;-65
2023/10/02 20:40:06;;;;;;;27.95;14.02;;;;;;;19.77;96.03;101581.78;10477616;28;20051;-65
2023/10/02 20:45:29;;;;;;;29.85;15.98;;;;;;;19.73;96.85;101567.13;10481715;28;20077;-65
2023/10/02 20:50:51;;;;;;;28.08;15.85;;;;;;;19.72;96.62;101549.69;10480919;28;20047;-65
2023/10/02 20:56:15;;;;;;;31.17;16.20;;;;;;;19.67;96.64;101549.94;10470817;28;20047;-65
2023/10/02 21:01:39;;;;;;;38.63;16.77;;;;;;;19.63;97.13;101531.81;10469946;28;20094;-65
2023/10/02 21:07:00;;;;;;;30.17;14.90;;;;;;;19.61;97.27;101536.31;10474748;28;20396;-65
2023/10/02 21:12:22;;;;;;;28.50;14.02;;;;;;;19.55;97.38;101531.41;10488921;28;20049;-65
2023/10/02 21:17:44;;;;;;;29.10;16.02;;;;;;;19.56;97.22;101517.31;10470708;28;20070;-65
2023/10/02 21:23:06;;;;;;;29.10;15.77;;;;;;;19.52;97.40;101500.06;10473500;28;20063;-65
2023/10/02 21:28:28;;;;;;;31.70;16.30;;;;;;;19.46;97.58;101485.50;10494277;28;20551;-65
2023/10/02 21:33:50;;;;;;;29.90;16.50;;;;;;;19.40;98.00;101458.72;10469540;28;20135;-65
2023/10/02 21:39:14;;;;;;;31.73;15.82;;;;;;;19.38;98.05;101452.72;10475701;28;20059;-64
2023/10/02 21:44:37;;;;;;;38.40;18.88;;;;;;;19.36;99.38;101439.69;10486978;28;20041;-64
2023/10/02 21:49:59;;;;;;;36.75;17.48;;;;;;;19.33;99.63;101439.00;10485789;28;20040;-64
2023/10/02 21:55:23;;;;;;;35.15;17.00;;;;;;;19.30;99.38;101433.91;10468840;28;20052;-65
2023/10/02 22:06:10;;;;;;;31.45;18.42;;;;;;;19.25;99.46;101433.31;10468675;28;20126;-65
2023/10/02 22:11:36;;;;;;;36.38;18.52;;;;;;;19.25;99.78;101425.44;10465640;28;20045;-64
2023/10/02 22:16:58;;;;;;;39.10;18.90;;;;;;;19.20;99.89;101411.72;10471038;28;20051;-64
2023/10/02 22:22:24;;;;;;;37.13;18.80;;;;;;;19.16;99.99;101395.31;10472151;28;20392;-65
2023/10/02 22:27:45;;;;;;;36.35;19.02;;;;;;;19.08;99.94;101392.28;10465750;28;20517;-66
2023/10/02 22:33:07;;;;;;;39.53;19.73;;;;;;;19.06;99.76;101387.09;10470973;28;20047;-65
2023/10/02 22:38:30;;;;;;;39.53;19.33;;;;;;;19.05;99.65;101384.56;10483171;28;20052;-65
2023/10/02 22:43:52;;;;;;;41.17;19.42;;;;;;;19.05;98.98;101371.47;10471351;28;20048;-65
2023/10/02 22:49:14;;;;;;;45.25;20.73;;;;;;;19.06;98.13;101353.00;10467170;28;20049;-65
2023/10/02 22:54:35;;;;;;;40.85;19.90;;;;;;;19.04;98.12;101346.16;10481769;28;20037;-65
2023/10/02 22:59:57;;;;;;;46.88;19.92;;;;;;;18.97;97.96;101318.59;10472648;28;20140;-65
2023/10/02 23:05:19;;;;;;;40.83;19.52;;;;;;;18.92;98.01;101300.47;10464741;28;20496;-65
2023/10/02 23:10:41;;;;;;;38.03;18.73;;;;;;;18.92;97.84;101291.75;10465825;28;20645;-65
2023/10/02 23:16:03;;;;;;;40.42;18.67;;;;;;;18.91;97.85;101297.94;10469465;28;20428;-65
2023/10/02 23:21:25;;;;;;;37.53;18.50;;;;;;;18.88;97.71;101275.34;10468286;28;20052;-65
2023/10/02 23:26:46;;;;;;;36.83;17.75;;;;;;;18.84;97.43;101273.00;10487117;28;20088;-65
2023/10/02 23:32:08;;;;;;;32.42;17.55;;;;;;;18.81;97.31;101263.53;10470080;28;20053;-65
2023/10/02 23:37:30;;;;;;;35.60;17.67;;;;;;;18.82;97.06;101249.50;10466877;28;20077;-65
2023/10/02 23:42:58;;;;;;;33.10;16.75;;;;;;;18.84;96.92;101242.34;10472570;28;20052;-65
2023/10/02 23:48:22;;;;;;;37.55;19.30;;;;;;;18.82;97.03;101232.91;10483825;28;20052;-65
2023/10/02 23:53:45;;;;;;;37.30;17.48;;;;;;;18.82;96.32;101199.66;10478158;28;20056;-66
2023/10/02 23:59:07;;;;;;;37.17;17.15;;;;;;;18.81;96.16;101176.97;10478561;28;20053;-64
